createdAt,value
2019-04-29T00:00:04.572Z,264.95
2019-04-29T00:00:09.572Z,260.94
2019-04-29T00:00:14.577Z,260.94
2019-04-29T00:00:19.578Z,261.92
2019-04-29T00:00:24.604Z,261.92
2019-04-29T00:00:29.596Z,262.78
2019-04-29T00:00:34.578Z,262.78
2019-04-29T00:00:39.580Z,267.80
2019-04-29T00:00:44.581Z,267.80
2019-04-29T00:00:49.586Z,263.42
2019-04-29T00:00:54.583Z,263.42
2019-04-29T00:00:59.585Z,264.15
2019-04-29T00:01:04.584Z,264.15
2019-04-29T00:01:09.586Z,260.08
2019-04-29T00:01:14.585Z,260.08
2019-04-29T00:01:19.586Z,261.18
2019-04-29T00:01:24.592Z,261.18
2019-04-29T00:01:29.591Z,262.14
2019-04-29T00:01:34.596Z,262.14
2019-04-29T00:01:39.591Z,258.29
2019-04-29T00:01:44.592Z,258.29
2019-04-29T00:01:49.595Z,259.57
2019-04-29T00:01:54.797Z,259.57
2019-04-29T00:01:59.597Z,260.71
2019-04-29T00:02:04.595Z,260.71
2019-04-29T00:02:09.598Z,257.02
2019-04-29T00:02:14.602Z,257.02
2019-04-29T00:02:19.598Z,262.59
2019-04-29T00:02:24.601Z,262.59
2019-04-29T00:02:29.599Z,258.56
2019-04-29T00:02:34.602Z,258.56
2019-04-29T00:02:39.604Z,259.85
2019-04-29T00:02:44.605Z,259.85
2019-04-29T00:02:49.605Z,256.10
2019-04-29T00:02:54.606Z,256.10
2019-04-29T00:02:59.606Z,252.72
2019-04-29T00:03:04.608Z,252.72
2019-04-29T00:03:09.611Z,254.65
2019-04-29T00:03:14.610Z,254.65
2019-04-29T00:03:19.613Z,251.43
2019-04-29T00:03:24.614Z,251.43
2019-04-29T00:03:29.745Z,253.48
2019-04-29T00:03:34.614Z,253.48
2019-04-29T00:03:39.614Z,255.30
2019-04-29T00:03:44.616Z,255.30
2019-04-29T00:03:49.614Z,252.07
2019-04-29T00:03:54.618Z,252.07
2019-04-29T00:03:59.619Z,249.16
2019-04-29T00:04:04.620Z,249.16
2019-04-29T00:04:09.620Z,251.42
2019-04-29T00:04:14.620Z,251.42
2019-04-29T00:04:19.621Z,253.44
2019-04-29T00:04:24.626Z,253.44
2019-04-29T00:04:29.622Z,257.47
2019-04-29T00:04:34.625Z,257.47
2019-04-29T00:04:39.626Z,263.08
2019-04-29T00:04:44.628Z,263.08
2019-04-29T00:04:49.628Z,263.87
2019-04-29T00:04:54.628Z,263.87
2019-04-29T00:04:59.630Z,269.09
2019-04-29T00:05:04.633Z,269.09
2019-04-29T00:05:09.632Z,269.20
2019-04-29T00:05:14.633Z,269.20
2019-04-29T00:05:19.634Z,269.29
2019-04-29T00:05:24.636Z,269.29
2019-04-29T00:05:29.635Z,269.37
2019-04-29T00:05:34.636Z,269.37
2019-04-29T00:05:39.638Z,269.44
2019-04-29T00:05:44.639Z,269.44
2019-04-29T00:05:49.641Z,269.50
2019-04-29T00:05:54.640Z,269.50
2019-04-29T00:05:59.642Z,274.07
2019-04-29T00:06:04.644Z,274.07
2019-04-29T00:06:21.859Z,225.00
2019-04-29T00:06:27.285Z,225.00
2019-04-29T00:06:31.862Z,248.75
2019-04-29T00:06:36.864Z,248.75
2019-04-29T00:06:42.421Z,256.96
2019-04-29T00:06:46.867Z,256.96
2019-04-29T00:06:51.865Z,247.37
2019-04-29T00:06:57.069Z,247.37
2019-04-29T00:07:01.867Z,253.18
2019-04-29T00:07:06.870Z,253.18
2019-04-29T00:07:11.870Z,256.96
2019-04-29T00:07:16.871Z,256.96
2019-04-29T00:07:21.878Z,250.66
2019-04-29T00:07:26.871Z,250.66
2019-04-29T00:07:31.876Z,254.25
2019-04-29T00:07:36.874Z,254.25
2019-04-29T00:07:41.885Z,256.96
2019-04-29T00:07:46.877Z,256.96
2019-04-29T00:07:51.881Z,265.44
2019-04-29T00:07:56.879Z,265.44
2019-04-29T00:08:01.882Z,266.17
2019-04-29T00:08:06.883Z,266.17
2019-04-29T00:08:11.881Z,266.76
2019-04-29T00:08:16.884Z,266.76
2019-04-29T00:08:21.884Z,267.23
2019-04-29T00:08:26.884Z,267.23
2019-04-29T00:08:31.884Z,267.61
2019-04-29T00:08:36.885Z,267.61
2019-04-29T00:08:41.887Z,262.26
2019-04-29T00:08:46.889Z,262.26
2019-04-29T00:08:51.888Z,263.28
2019-04-29T00:08:56.890Z,263.28
2019-04-29T00:09:01.892Z,258.60
2019-04-29T00:09:06.893Z,258.60
2019-04-29T00:09:11.893Z,260.05
2019-04-29T00:09:16.894Z,260.05
2019-04-29T00:09:21.900Z,261.28
2019-04-29T00:09:26.894Z,261.28
2019-04-29T00:09:31.898Z,257.06
2019-04-29T00:09:36.897Z,257.06
2019-04-29T00:09:41.898Z,253.30
2019-04-29T00:09:46.901Z,253.30
2019-04-29T00:09:51.901Z,255.30
2019-04-29T00:09:56.900Z,255.30
2019-04-29T00:10:02.125Z,257.03
2019-04-29T00:10:06.903Z,257.03
2019-04-29T00:10:11.904Z,258.54
2019-04-29T00:10:16.905Z,258.54
2019-04-29T00:10:21.907Z,254.83
2019-04-29T00:10:26.907Z,254.83
2019-04-29T00:10:31.909Z,260.88
2019-04-29T00:10:36.911Z,260.88
2019-04-29T00:10:41.910Z,261.96
2019-04-29T00:10:46.961Z,261.96
2019-04-29T00:10:51.912Z,257.84
2019-04-29T00:10:56.912Z,257.84
2019-04-29T00:11:01.915Z,259.26
2019-04-29T00:11:06.919Z,259.26
2019-04-29T00:11:11.914Z,260.50
2019-04-29T00:11:16.917Z,260.50
2019-04-29T00:11:21.918Z,256.63
2019-04-29T00:11:26.919Z,256.63
2019-04-29T00:11:31.920Z,258.15
2019-04-29T00:11:36.921Z,258.15
2019-04-29T00:11:41.922Z,259.48
2019-04-29T00:11:46.922Z,259.48
2019-04-29T00:11:51.925Z,265.01
2019-04-29T00:11:56.923Z,265.01
2019-04-29T00:12:01.926Z,260.67
2019-04-29T00:12:06.926Z,260.67
2019-04-29T00:12:11.926Z,261.74
2019-04-29T00:12:16.929Z,261.74
2019-04-29T00:12:21.931Z,257.75
2019-04-29T00:12:26.931Z,257.75
2019-04-29T00:12:31.932Z,254.14
2019-04-29T00:12:36.932Z,254.14
2019-04-29T00:12:41.932Z,255.94
2019-04-29T00:12:46.934Z,255.94
2019-04-29T00:12:51.935Z,252.55
2019-04-29T00:12:56.938Z,252.55
2019-04-29T00:13:01.936Z,254.51
2019-04-29T00:13:06.939Z,254.51
2019-04-29T00:13:11.938Z,256.23
2019-04-29T00:13:16.940Z,256.23
2019-04-29T00:13:21.943Z,261.97
2019-04-29T00:13:26.943Z,261.97
2019-04-29T00:13:31.942Z,262.89
2019-04-29T00:13:36.944Z,262.89
2019-04-29T00:13:41.947Z,258.81
2019-04-29T00:13:46.948Z,258.81
2019-04-29T00:13:51.947Z,260.08
2019-04-29T00:13:56.948Z,260.08
2019-04-29T00:14:01.950Z,265.61
2019-04-29T00:14:06.951Z,265.61
2019-04-29T00:14:11.953Z,270.84
2019-04-29T00:14:17.145Z,270.84
2019-04-29T00:14:21.953Z,275.69
2019-04-29T00:14:26.957Z,275.69
2019-04-29T00:14:31.955Z,275.02
2019-04-29T00:14:36.955Z,275.02
2019-04-29T00:14:41.957Z,274.43
2019-04-29T00:14:46.957Z,274.43
2019-04-29T00:14:51.958Z,269.24
2019-04-29T00:14:56.959Z,269.24
2019-04-29T00:15:01.962Z,269.33
2019-04-29T00:15:06.961Z,269.33
2019-04-29T00:15:12.589Z,269.41
2019-04-29T00:15:16.964Z,269.41
2019-04-29T00:15:21.972Z,269.47
2019-04-29T00:15:26.966Z,269.47
2019-04-29T00:15:31.966Z,264.85
2019-04-29T00:15:36.968Z,264.85
2019-04-29T00:15:41.969Z,265.43
2019-04-29T00:15:46.970Z,265.43
2019-04-29T00:15:51.970Z,265.94
2019-04-29T00:15:56.970Z,265.94
2019-04-29T00:16:01.972Z,261.68
2019-04-29T00:16:06.972Z,261.68
2019-04-29T00:16:11.975Z,262.61
2019-04-29T00:16:16.975Z,262.61
2019-04-29T00:16:21.977Z,267.85
2019-04-29T00:16:26.977Z,267.85
2019-04-29T00:16:31.979Z,268.09
2019-04-29T00:16:36.980Z,268.09
2019-04-29T00:16:41.981Z,268.30
2019-04-29T00:16:46.981Z,268.30
2019-04-29T00:16:51.979Z,268.49
2019-04-29T00:16:57.026Z,268.49
2019-04-29T00:17:02.025Z,268.66
2019-04-29T00:17:07.026Z,268.66
2019-04-29T00:17:12.029Z,273.30
2019-04-29T00:17:17.029Z,273.30
2019-04-29T00:17:22.029Z,272.93
2019-04-29T00:17:27.029Z,272.93
2019-04-29T00:17:32.033Z,272.61
2019-04-29T00:17:37.033Z,272.61
2019-04-29T00:17:42.036Z,267.87
2019-04-29T00:17:47.034Z,267.87
2019-04-29T00:17:52.037Z,268.10
2019-04-29T00:17:57.036Z,268.10
2019-04-29T00:18:02.037Z,268.31
2019-04-29T00:18:07.039Z,268.31
2019-04-29T00:18:12.041Z,268.50
2019-04-29T00:18:17.040Z,268.50
2019-04-29T00:18:22.044Z,273.11
2019-04-29T00:18:27.043Z,273.11
2019-04-29T00:18:32.044Z,272.77
2019-04-29T00:18:37.045Z,272.77
2019-04-29T00:18:42.046Z,272.47
2019-04-29T00:18:47.048Z,272.47
2019-04-29T00:18:52.048Z,276.76
2019-04-29T00:18:57.050Z,276.76
2019-04-29T00:19:02.050Z,280.73
2019-04-29T00:19:07.053Z,280.73
2019-04-29T00:19:12.051Z,279.54
2019-04-29T00:19:17.053Z,279.54
2019-04-29T00:19:22.054Z,278.50
2019-04-29T00:19:27.055Z,278.50
2019-04-29T00:19:32.056Z,277.58
2019-04-29T00:19:37.058Z,277.58
2019-04-29T00:19:42.057Z,276.77
2019-04-29T00:19:47.058Z,276.77
2019-04-29T00:19:52.058Z,276.04
2019-04-29T00:19:57.059Z,276.04
2019-04-29T00:20:02.061Z,275.40
2019-04-29T00:20:07.062Z,275.40
2019-04-29T00:20:12.063Z,270.56
2019-04-29T00:20:17.065Z,270.56
2019-04-29T00:20:22.066Z,270.50
2019-04-29T00:20:27.068Z,270.50
2019-04-29T00:20:32.065Z,265.96
2019-04-29T00:20:37.068Z,265.96
2019-04-29T00:20:42.068Z,270.88
2019-04-29T00:20:47.072Z,270.88
2019-04-29T00:20:52.071Z,270.78
2019-04-29T00:20:57.072Z,270.78
2019-04-29T00:21:02.072Z,270.70
2019-04-29T00:21:08.140Z,270.70
2019-04-29T00:21:12.073Z,270.62
2019-04-29T00:21:17.076Z,270.62
2019-04-29T00:21:22.075Z,270.55
2019-04-29T00:21:27.078Z,270.55
2019-04-29T00:21:32.081Z,270.49
2019-04-29T00:21:37.079Z,270.49
2019-04-29T00:21:42.081Z,270.44
2019-04-29T00:21:47.081Z,270.44
2019-04-29T00:21:52.083Z,270.39
2019-04-29T00:21:57.082Z,270.39
2019-04-29T00:22:02.086Z,264.43
2019-04-29T00:22:07.689Z,264.43
2019-04-29T00:22:12.092Z,265.04
2019-04-29T00:22:17.088Z,265.04
2019-04-29T00:22:22.089Z,265.59
2019-04-29T00:22:27.089Z,265.59
2019-04-29T00:22:32.090Z,266.07
2019-04-29T00:22:37.092Z,266.07
2019-04-29T00:22:42.092Z,270.89
2019-04-29T00:22:47.097Z,270.89
2019-04-29T00:22:52.093Z,266.21
2019-04-29T00:22:57.095Z,266.21
2019-04-29T00:23:02.097Z,261.86
2019-04-29T00:23:07.096Z,261.86
2019-04-29T00:23:12.098Z,262.78
2019-04-29T00:23:17.149Z,262.78
2019-04-29T00:23:22.099Z,270.02
2019-04-29T00:23:27.101Z,270.02
2019-04-29T00:23:32.102Z,270.02
2019-04-29T00:23:37.103Z,270.02
2019-04-29T00:23:42.103Z,270.02
2019-04-29T00:23:47.106Z,270.02
2019-04-29T00:23:52.107Z,274.97
2019-04-29T00:23:57.105Z,274.97
2019-04-29T00:24:02.115Z,274.38
2019-04-29T00:24:07.119Z,274.38
2019-04-29T00:24:12.157Z,273.86
2019-04-29T00:24:17.123Z,273.86
2019-04-29T00:24:22.162Z,273.42
2019-04-29T00:24:27.114Z,273.42
2019-04-29T00:24:32.114Z,273.03
2019-04-29T00:24:37.181Z,273.03
2019-04-29T00:24:42.188Z,272.69
2019-04-29T00:24:47.116Z,272.69
2019-04-29T00:24:52.127Z,272.39
2019-04-29T00:24:57.121Z,272.39
2019-04-29T00:25:02.169Z,276.76
2019-04-29T00:25:07.120Z,276.76
2019-04-29T00:25:12.120Z,276.01
2019-04-29T00:25:17.122Z,276.01
2019-04-29T00:25:22.123Z,275.35
2019-04-29T00:25:27.125Z,275.35
2019-04-29T00:25:32.124Z,274.77
2019-04-29T00:25:37.126Z,274.77
2019-04-29T00:25:42.125Z,274.25
2019-04-29T00:25:47.129Z,274.25
2019-04-29T00:25:52.129Z,273.80
2019-04-29T00:25:57.130Z,273.80
2019-04-29T00:26:02.131Z,273.39
2019-04-29T00:26:07.130Z,273.39
2019-04-29T00:26:12.132Z,277.52
2019-04-29T00:26:17.134Z,277.52
2019-04-29T00:26:22.134Z,276.72
2019-04-29T00:26:27.137Z,276.72
2019-04-29T00:26:32.138Z,276.00
2019-04-29T00:26:37.137Z,276.00
2019-04-29T00:26:42.139Z,275.36
2019-04-29T00:26:47.141Z,275.36
2019-04-29T00:26:52.141Z,274.80
2019-04-29T00:26:57.140Z,274.80
2019-04-29T00:27:02.141Z,274.29
2019-04-29T00:27:07.144Z,274.29
2019-04-29T00:27:12.144Z,273.85
2019-04-29T00:27:17.145Z,273.85
2019-04-29T00:27:22.148Z,273.45
2019-04-29T00:27:27.148Z,273.45
2019-04-29T00:27:32.149Z,273.09
2019-04-29T00:27:37.603Z,273.09
2019-04-29T00:27:42.150Z,272.77
2019-04-29T00:27:47.150Z,272.77
2019-04-29T00:27:52.151Z,272.49
2019-04-29T00:27:57.151Z,272.49
2019-04-29T00:28:02.154Z,268.01
2019-04-29T00:28:07.155Z,268.01
2019-04-29T00:28:12.155Z,268.22
2019-04-29T00:28:17.157Z,268.22
2019-04-29T00:28:22.158Z,268.40
2019-04-29T00:28:27.158Z,268.40
2019-04-29T00:28:32.159Z,268.57
2019-04-29T00:28:37.161Z,268.57
2019-04-29T00:28:42.161Z,268.72
2019-04-29T00:28:47.163Z,268.72
2019-04-29T00:28:52.164Z,268.85
2019-04-29T00:28:57.168Z,268.85
2019-04-29T00:29:02.165Z,268.97
2019-04-29T00:29:07.166Z,268.97
2019-04-29T00:29:12.166Z,269.08
2019-04-29T00:29:17.168Z,269.08
2019-04-29T00:29:22.169Z,273.42
2019-04-29T00:29:27.169Z,273.42
2019-04-29T00:29:32.171Z,277.51
2019-04-29T00:29:37.173Z,277.51
2019-04-29T00:29:42.174Z,272.46
2019-04-29T00:29:47.173Z,272.46
2019-04-29T00:29:52.176Z,272.19
2019-04-29T00:29:57.175Z,272.19
2019-04-29T00:30:02.178Z,271.95
2019-04-29T00:30:07.179Z,271.95
2019-04-29T00:30:12.178Z,271.74
2019-04-29T00:30:17.180Z,271.74
2019-04-29T00:30:22.180Z,271.56
2019-04-29T00:30:27.183Z,271.56
2019-04-29T00:30:32.182Z,271.39
2019-04-29T00:30:37.540Z,271.39
2019-04-29T00:30:42.183Z,271.25
2019-04-29T00:30:47.185Z,271.25
2019-04-29T00:30:52.187Z,271.11
2019-04-29T00:30:57.187Z,271.11
2019-04-29T00:31:02.188Z,271.00
2019-04-29T00:31:07.190Z,271.00
2019-04-29T00:31:12.189Z,270.89
2019-04-29T00:31:17.191Z,270.89
2019-04-29T00:31:22.194Z,270.80
2019-04-29T00:31:27.192Z,270.80
2019-04-29T00:31:32.194Z,264.95
2019-04-29T00:31:37.195Z,264.95
2019-04-29T00:31:42.198Z,265.50
2019-04-29T00:31:47.197Z,265.50
2019-04-29T00:31:52.199Z,265.98
2019-04-29T00:31:57.200Z,265.98
2019-04-29T00:32:02.202Z,266.41
2019-04-29T00:32:07.200Z,266.41
2019-04-29T00:32:12.203Z,266.79
2019-04-29T00:32:17.202Z,266.79
2019-04-29T00:32:22.203Z,267.13
2019-04-29T00:32:27.204Z,267.13
2019-04-29T00:32:32.206Z,267.43
2019-04-29T00:32:37.207Z,267.43
2019-04-29T00:32:42.208Z,267.70
2019-04-29T00:32:47.210Z,267.70
2019-04-29T00:32:52.211Z,267.94
2019-04-29T00:32:57.211Z,267.94
2019-04-29T00:33:02.209Z,268.15
2019-04-29T00:33:07.211Z,268.15
2019-04-29T00:33:12.213Z,268.34
2019-04-29T00:33:17.215Z,268.34
2019-04-29T00:33:22.213Z,261.82
2019-04-29T00:33:27.215Z,261.82
2019-04-29T00:33:32.216Z,262.74
2019-04-29T00:33:37.217Z,262.74
2019-04-29T00:33:42.218Z,263.54
2019-04-29T00:33:47.222Z,263.54
2019-04-29T00:33:52.220Z,268.66
2019-04-29T00:33:57.221Z,268.66
2019-04-29T00:34:02.221Z,268.81
2019-04-29T00:34:07.223Z,268.81
2019-04-29T00:34:12.359Z,273.55
2019-04-29T00:34:17.224Z,273.55
2019-04-29T00:34:22.227Z,273.15
2019-04-29T00:34:27.228Z,273.15
2019-04-29T00:34:32.227Z,272.80
2019-04-29T00:34:37.228Z,272.80
2019-04-29T00:34:42.231Z,267.96
2019-04-29T00:34:47.243Z,267.96
2019-04-29T00:34:52.242Z,268.19
2019-04-29T00:34:57.246Z,268.19
2019-04-29T00:35:02.244Z,268.39
2019-04-29T00:35:07.244Z,268.39
2019-04-29T00:35:12.248Z,268.56
2019-04-29T00:35:17.246Z,268.56
2019-04-29T00:35:22.249Z,268.72
2019-04-29T00:35:27.249Z,268.72
2019-04-29T00:35:32.254Z,268.86
2019-04-29T00:35:37.256Z,268.86
2019-04-29T00:35:42.254Z,268.98
2019-04-29T00:35:47.255Z,268.98
2019-04-29T00:35:52.254Z,269.09
2019-04-29T00:35:57.256Z,269.09
2019-04-29T00:36:02.259Z,269.18
2019-04-29T00:36:07.257Z,269.18
2019-04-29T00:36:12.260Z,269.27
2019-04-29T00:36:17.261Z,269.27
2019-04-29T00:36:22.260Z,269.35
2019-04-29T00:36:27.262Z,269.35
2019-04-29T00:36:32.263Z,269.41
2019-04-29T00:36:37.264Z,269.41
2019-04-29T00:36:42.263Z,269.48
2019-04-29T00:36:47.266Z,269.48
2019-04-29T00:36:52.267Z,269.53
2019-04-29T00:36:57.268Z,269.53
2019-04-29T00:37:02.269Z,269.58
2019-04-29T00:37:07.271Z,269.58
2019-04-29T00:37:12.273Z,269.62
2019-04-29T00:37:17.271Z,269.62
2019-04-29T00:37:22.272Z,269.66
2019-04-29T00:37:27.274Z,269.66
2019-04-29T00:37:32.274Z,269.69
2019-04-29T00:37:37.275Z,269.69
2019-04-29T00:37:42.276Z,269.73
2019-04-29T00:37:47.277Z,269.73
2019-04-29T00:37:52.279Z,269.75
2019-04-29T00:37:57.282Z,269.75
2019-04-29T00:38:02.280Z,269.78
2019-04-29T00:38:07.279Z,269.78
2019-04-29T00:38:12.281Z,269.80
2019-04-29T00:38:17.282Z,269.80
2019-04-29T00:38:22.284Z,269.82
2019-04-29T00:38:27.518Z,269.82
2019-04-29T00:38:32.285Z,269.84
2019-04-29T00:38:37.287Z,269.84
2019-04-29T00:38:42.287Z,269.86
2019-04-29T00:38:47.290Z,269.86
2019-04-29T00:38:52.291Z,269.87
2019-04-29T00:38:57.289Z,269.87
2019-04-29T00:39:02.292Z,269.88
2019-04-29T00:39:07.291Z,269.88
2019-04-29T00:39:12.292Z,269.89
2019-04-29T00:39:17.293Z,269.89
2019-04-29T00:39:22.295Z,269.91
2019-04-29T00:39:27.297Z,269.91
2019-04-29T00:39:32.295Z,269.92
2019-04-29T00:39:37.298Z,269.92
2019-04-29T00:39:42.299Z,269.92
2019-04-29T00:39:47.300Z,269.92
2019-04-29T00:39:52.301Z,269.93
2019-04-29T00:39:57.304Z,269.93
2019-04-29T00:40:02.302Z,269.94
2019-04-29T00:40:07.307Z,269.94
2019-04-29T00:40:12.305Z,269.94
2019-04-29T00:40:17.307Z,269.94
2019-04-29T00:40:22.308Z,269.95
2019-04-29T00:40:27.307Z,269.95
2019-04-29T00:40:32.309Z,269.95
2019-04-29T00:40:37.310Z,269.95
2019-04-29T00:40:42.310Z,269.96
2019-04-29T00:40:47.312Z,269.96
2019-04-29T00:40:52.312Z,269.96
2019-04-29T00:40:57.313Z,269.96
2019-04-29T00:41:02.315Z,269.97
2019-04-29T00:41:07.317Z,269.97
2019-04-29T00:41:12.317Z,274.14
2019-04-29T00:41:17.319Z,274.14
2019-04-29T00:41:22.319Z,273.72
2019-04-29T00:41:27.319Z,273.72
2019-04-29T00:41:32.549Z,269.16
2019-04-29T00:41:37.320Z,269.16
2019-04-29T00:41:42.321Z,269.25
2019-04-29T00:41:47.323Z,269.25
2019-04-29T00:41:52.323Z,264.95
2019-04-29T00:41:57.326Z,264.95
2019-04-29T00:42:02.328Z,265.49
2019-04-29T00:42:07.329Z,265.49
2019-04-29T00:42:12.328Z,261.44
2019-04-29T00:42:17.330Z,261.44
2019-04-29T00:42:22.328Z,262.36
2019-04-29T00:42:27.533Z,262.36
2019-04-29T00:42:32.333Z,258.57
2019-04-29T00:42:37.333Z,258.57
2019-04-29T00:42:42.334Z,259.80
2019-04-29T00:42:47.336Z,259.80
2019-04-29T00:42:53.006Z,260.89
2019-04-29T00:42:57.337Z,260.89
2019-04-29T00:43:02.336Z,261.86
2019-04-29T00:43:07.340Z,261.86
2019-04-29T00:43:12.339Z,262.72
2019-04-29T00:43:17.342Z,262.72
2019-04-29T00:43:22.343Z,263.49
2019-04-29T00:43:27.342Z,263.49
2019-04-29T00:43:32.342Z,264.17
2019-04-29T00:43:37.343Z,264.17
2019-04-29T00:43:42.343Z,260.30
2019-04-29T00:43:47.348Z,260.30
2019-04-29T00:43:52.347Z,256.72
2019-04-29T00:43:57.348Z,256.72
2019-04-29T00:44:02.347Z,258.14
2019-04-29T00:44:07.350Z,258.14
2019-04-29T00:44:12.351Z,254.74
2019-04-29T00:44:17.352Z,254.74
2019-04-29T00:44:22.353Z,251.64
2019-04-29T00:44:28.020Z,251.64
2019-04-29T00:44:32.353Z,257.50
2019-04-29T00:44:37.358Z,257.50
2019-04-29T00:44:42.356Z,253.98
2019-04-29T00:44:47.357Z,253.98
2019-04-29T00:44:52.357Z,250.81
2019-04-29T00:44:57.363Z,250.81
2019-04-29T00:45:02.360Z,247.97
2019-04-29T00:45:07.361Z,247.97
2019-04-29T00:45:12.360Z,245.44
2019-04-29T00:45:17.369Z,245.44
2019-04-29T00:45:22.364Z,248.12
2019-04-29T00:45:27.364Z,248.12
2019-04-29T00:45:32.365Z,250.52
2019-04-29T00:45:37.367Z,250.52
2019-04-29T00:45:42.370Z,247.76
2019-04-29T00:45:47.369Z,247.76
2019-04-29T00:45:52.370Z,253.99
2019-04-29T00:45:57.373Z,253.99
2019-04-29T00:46:02.371Z,250.73
2019-04-29T00:46:07.372Z,250.73
2019-04-29T00:46:12.375Z,247.84
2019-04-29T00:46:17.375Z,247.84
2019-04-29T00:46:22.378Z,250.33
2019-04-29T00:46:27.380Z,250.33
2019-04-29T00:46:32.379Z,252.54
2019-04-29T00:46:37.380Z,252.54
2019-04-29T00:46:42.381Z,254.49
2019-04-29T00:46:47.380Z,254.49
2019-04-29T00:46:52.383Z,256.20
2019-04-29T00:46:57.383Z,256.20
2019-04-29T00:47:02.384Z,257.72
2019-04-29T00:47:07.384Z,257.72
2019-04-29T00:47:12.386Z,263.29
2019-04-29T00:47:17.387Z,263.29
2019-04-29T00:47:22.387Z,264.05
2019-04-29T00:47:27.389Z,264.05
2019-04-29T00:47:32.389Z,264.71
2019-04-29T00:47:37.390Z,264.71
2019-04-29T00:47:42.393Z,265.30
2019-04-29T00:47:47.394Z,265.30
2019-04-29T00:47:52.394Z,270.27
2019-04-29T00:47:57.394Z,270.27
2019-04-29T00:48:02.396Z,270.24
2019-04-29T00:48:07.398Z,270.24
2019-04-29T00:48:12.399Z,270.21
2019-04-29T00:48:17.521Z,270.21
2019-04-29T00:48:22.400Z,270.19
2019-04-29T00:48:27.401Z,270.19
2019-04-29T00:48:32.401Z,270.17
2019-04-29T00:48:37.410Z,270.17
2019-04-29T00:48:42.403Z,270.15
2019-04-29T00:48:47.402Z,270.15
2019-04-29T00:48:52.405Z,270.13
2019-04-29T00:48:57.406Z,270.13
2019-04-29T00:49:02.406Z,270.12
2019-04-29T00:49:07.409Z,270.12
2019-04-29T00:49:12.409Z,270.11
2019-04-29T00:49:17.409Z,270.11
2019-04-29T00:49:23.049Z,270.10
2019-04-29T00:49:27.410Z,270.10
2019-04-29T00:49:32.412Z,270.09
2019-04-29T00:49:37.415Z,270.09
2019-04-29T00:49:42.414Z,270.08
2019-04-29T00:49:47.415Z,270.08
2019-04-29T00:49:52.415Z,270.07
2019-04-29T00:49:57.418Z,270.07
2019-04-29T00:50:02.416Z,274.36
2019-04-29T00:50:07.419Z,274.36
2019-04-29T00:50:12.421Z,273.90
2019-04-29T00:50:17.423Z,273.90
2019-04-29T00:50:22.423Z,273.50
2019-04-29T00:50:27.422Z,273.50
2019-04-29T00:50:32.422Z,277.56
2019-04-29T00:50:37.423Z,277.56
2019-04-29T00:50:42.425Z,272.53
2019-04-29T00:50:47.425Z,272.53
2019-04-29T00:50:52.679Z,272.25
2019-04-29T00:50:57.428Z,272.25
2019-04-29T00:51:02.431Z,276.58
2019-04-29T00:51:07.431Z,276.58
2019-04-29T00:51:12.433Z,275.86
2019-04-29T00:51:17.434Z,275.86
2019-04-29T00:51:22.434Z,275.22
2019-04-29T00:51:27.435Z,275.22
2019-04-29T00:51:32.435Z,274.66
2019-04-29T00:51:37.437Z,274.66
2019-04-29T00:51:42.437Z,278.73
2019-04-29T00:51:47.438Z,278.73
2019-04-29T00:51:52.439Z,273.49
2019-04-29T00:51:57.439Z,273.49
2019-04-29T00:52:02.441Z,273.10
2019-04-29T00:52:07.442Z,273.10
2019-04-29T00:52:12.441Z,272.76
2019-04-29T00:52:17.444Z,272.76
2019-04-29T00:52:22.445Z,272.46
2019-04-29T00:52:27.448Z,272.46
2019-04-29T00:52:32.448Z,276.77
2019-04-29T00:52:37.451Z,276.77
2019-04-29T00:52:42.453Z,276.03
2019-04-29T00:52:47.449Z,276.03
2019-04-29T00:52:52.451Z,280.04
2019-04-29T00:52:57.452Z,280.04
2019-04-29T00:53:02.453Z,278.94
2019-04-29T00:53:07.454Z,278.94
2019-04-29T00:53:12.456Z,277.97
2019-04-29T00:53:17.455Z,277.97
2019-04-29T00:53:22.456Z,279.53
2019-04-29T00:53:27.458Z,279.53
2019-04-29T00:53:32.458Z,278.51
2019-04-29T00:53:37.459Z,278.51
2019-04-29T00:53:42.710Z,273.37
2019-04-29T00:53:47.463Z,273.37
2019-04-29T00:53:52.463Z,273.00
2019-04-29T00:53:57.462Z,273.00
2019-04-29T00:54:02.463Z,272.67
2019-04-29T00:54:07.465Z,272.67
2019-04-29T00:54:12.465Z,272.38
2019-04-29T00:54:17.471Z,272.38
2019-04-29T00:54:22.469Z,272.13
2019-04-29T00:54:27.473Z,272.13
2019-04-29T00:54:32.471Z,271.90
2019-04-29T00:54:37.473Z,271.90
2019-04-29T00:54:42.472Z,271.70
2019-04-29T00:54:47.596Z,271.70
2019-04-29T00:54:52.473Z,271.52
2019-04-29T00:54:57.475Z,271.52
2019-04-29T00:55:02.476Z,271.36
2019-04-29T00:55:07.477Z,271.36
2019-04-29T00:55:12.478Z,271.22
2019-04-29T00:55:17.478Z,271.22
2019-04-29T00:55:22.479Z,271.09
2019-04-29T00:55:27.479Z,271.09
2019-04-29T00:55:32.481Z,270.98
2019-04-29T00:55:37.482Z,270.98
2019-04-29T00:55:42.483Z,270.88
2019-04-29T00:55:47.483Z,270.88
2019-04-29T00:55:52.484Z,275.09
2019-04-29T00:55:57.486Z,275.09
2019-04-29T00:56:02.771Z,274.56
2019-04-29T00:56:07.536Z,274.56
2019-04-29T00:56:12.535Z,269.84
2019-04-29T00:56:17.537Z,269.84
2019-04-29T00:56:22.540Z,269.86
2019-04-29T00:56:27.539Z,269.86
2019-04-29T00:56:32.541Z,265.43
2019-04-29T00:56:37.545Z,265.43
2019-04-29T00:56:42.544Z,265.92
2019-04-29T00:56:47.545Z,265.92
2019-04-29T00:56:52.545Z,266.36
2019-04-29T00:56:57.547Z,266.36
2019-04-29T00:57:02.556Z,266.75
2019-04-29T00:57:07.546Z,266.75
2019-04-29T00:57:12.548Z,267.10
2019-04-29T00:57:17.550Z,267.10
2019-04-29T00:57:22.552Z,267.40
2019-04-29T00:57:27.552Z,267.40
2019-04-29T00:57:32.553Z,267.67
2019-04-29T00:57:37.553Z,267.67
2019-04-29T00:57:42.554Z,267.92
2019-04-29T00:57:47.558Z,267.92
2019-04-29T00:57:52.555Z,268.13
2019-04-29T00:57:57.557Z,268.13
2019-04-29T00:58:02.559Z,268.33
2019-04-29T00:58:07.560Z,268.33
2019-04-29T00:58:12.561Z,268.50
2019-04-29T00:58:17.560Z,268.50
2019-04-29T00:58:22.561Z,268.65
2019-04-29T00:58:27.565Z,268.65
2019-04-29T00:58:32.565Z,268.79
2019-04-29T00:58:37.564Z,268.79
2019-04-29T00:58:42.567Z,264.62
2019-04-29T00:58:47.640Z,264.62
2019-04-29T00:58:52.572Z,265.18
2019-04-29T00:58:57.570Z,265.18
2019-04-29T00:59:02.571Z,261.25
2019-04-29T00:59:07.571Z,261.25
2019-04-29T00:59:12.571Z,262.17
2019-04-29T00:59:17.575Z,262.17
2019-04-29T00:59:22.573Z,262.99
2019-04-29T00:59:27.574Z,262.99
2019-04-29T00:59:32.574Z,259.22
2019-04-29T00:59:37.576Z,259.22
2019-04-29T00:59:42.577Z,260.36
2019-04-29T00:59:47.719Z,260.36
2019-04-29T00:59:52.578Z,261.37
2019-04-29T00:59:57.579Z,261.37
2019-04-29T01:00:02.581Z,262.28
2019-04-29T01:00:07.583Z,262.28
2019-04-29T01:00:12.582Z,263.09
2019-04-29T01:00:17.588Z,263.09
2019-04-29T01:00:22.585Z,267.98
2019-04-29T01:00:27.587Z,267.98
2019-04-29T01:00:32.587Z,272.63
2019-04-29T01:00:37.591Z,272.63
2019-04-29T01:00:42.631Z,272.34
2019-04-29T01:00:47.590Z,272.34
2019-04-29T01:00:52.592Z,272.09
2019-04-29T01:00:57.592Z,272.09
2019-04-29T01:01:02.593Z,271.86
2019-04-29T01:01:07.593Z,271.86
2019-04-29T01:01:12.593Z,271.66
2019-04-29T01:01:17.594Z,271.66
2019-04-29T01:01:22.597Z,271.49
2019-04-29T01:01:27.600Z,271.49
2019-04-29T01:01:32.598Z,271.33
2019-04-29T01:01:37.601Z,271.33
2019-04-29T01:01:42.602Z,271.19
2019-04-29T01:01:47.602Z,271.19
2019-04-29T01:01:52.602Z,271.07
2019-04-29T01:01:57.602Z,271.07
2019-04-29T01:02:02.606Z,275.32
2019-04-29T01:02:07.614Z,275.32
2019-04-29T01:02:12.604Z,274.75
2019-04-29T01:02:17.607Z,274.75
2019-04-29T01:02:22.609Z,274.25
2019-04-29T01:02:27.613Z,274.25
2019-04-29T01:02:32.609Z,273.81
2019-04-29T01:02:37.610Z,273.81